createdAt,value
2018-08-10T00:00:24.524Z,0.90
2018-08-10T00:03:29.052Z,0.90
2018-08-10T00:06:33.465Z,1.07
2018-08-10T00:09:37.898Z,1.30
2018-08-10T00:12:42.389Z,1.42
2018-08-10T00:15:46.793Z,1.22
2018-08-10T00:18:51.258Z,1.10
2018-08-10T00:21:55.668Z,1.07
2018-08-10T00:25:00.176Z,1.10
2018-08-10T00:28:04.678Z,0.93
2018-08-10T00:31:09.256Z,1.22
2018-08-10T00:34:13.817Z,1.00
2018-08-10T00:37:18.238Z,0.72
2018-08-10T00:40:24.142Z,0.80
2018-08-10T00:43:28.603Z,0.68
2018-08-10T00:46:33.233Z,0.60
2018-08-10T00:49:37.697Z,0.50
2018-08-10T00:52:42.692Z,0.60
2018-08-10T00:55:47.220Z,0.70
2018-08-10T00:58:51.677Z,0.60
2018-08-10T01:01:56.167Z,0.50
2018-08-10T01:05:00.695Z,0.60
2018-08-10T01:08:05.221Z,0.57
2018-08-10T01:11:09.721Z,0.43
2018-08-10T01:14:14.194Z,0.60
2018-08-10T01:17:18.696Z,0.60
2018-08-10T01:20:24.181Z,0.50
2018-08-10T01:23:28.677Z,0.40
2018-08-10T01:26:33.196Z,0.60
2018-08-10T01:29:37.723Z,0.50
2018-08-10T01:32:42.250Z,0.60
2018-08-10T01:35:46.710Z,0.40
2018-08-10T01:38:51.183Z,0.50
2018-08-10T01:41:55.725Z,0.50
2018-08-10T01:45:00.331Z,0.47
2018-08-10T01:48:04.830Z,0.50
2018-08-10T01:51:09.327Z,0.50
2018-08-10T01:54:13.827Z,0.60
2018-08-10T01:57:18.354Z,0.50
2018-08-10T02:00:22.842Z,0.40
2018-08-10T02:03:27.302Z,0.53
2018-08-10T02:06:31.828Z,0.33
2018-08-10T02:09:36.355Z,0.50
2018-08-10T02:12:41.561Z,0.50
2018-08-10T02:15:46.054Z,0.40
2018-08-10T02:18:50.549Z,0.40
2018-08-10T02:21:55.081Z,0.40
2018-08-10T02:24:59.522Z,0.30
2018-08-10T02:28:04.026Z,0.43
2018-08-10T02:31:08.873Z,0.30
2018-08-10T02:34:13.332Z,0.40
2018-08-10T02:37:17.909Z,0.67
2018-08-10T02:40:23.356Z,0.40
2018-08-10T02:43:27.814Z,0.40
2018-08-10T02:46:32.287Z,0.40
2018-08-10T02:49:36.830Z,0.50
2018-08-10T02:52:41.475Z,0.33
2018-08-10T02:55:45.882Z,0.30
2018-08-10T02:58:50.408Z,0.40
2018-08-10T03:01:54.899Z,0.40
2018-08-10T03:04:59.359Z,0.30
2018-08-10T03:08:03.883Z,0.30
2018-08-10T03:11:08.482Z,0.40
2018-08-10T03:14:12.988Z,0.40
2018-08-10T03:17:17.470Z,0.40
2018-08-10T03:20:21.905Z,0.33
2018-08-10T03:23:26.419Z,0.30
2018-08-10T03:26:30.918Z,0.67
2018-08-10T03:29:35.739Z,0.40
2018-08-10T03:32:40.298Z,0.30
2018-08-10T03:35:44.730Z,0.30
2018-08-10T03:38:49.350Z,0.40
2018-08-10T03:41:53.825Z,1.00
2018-08-10T03:44:58.297Z,0.47
2018-08-10T03:48:02.729Z,0.60
2018-08-10T03:51:07.230Z,0.60
2018-08-10T03:54:11.717Z,0.40
2018-08-10T03:57:16.198Z,0.50
2018-08-10T04:00:20.665Z,0.47
2018-08-10T04:03:25.133Z,0.60
2018-08-10T04:06:29.586Z,0.40
2018-08-10T04:09:34.093Z,0.53
2018-08-10T04:12:38.971Z,0.60
2018-08-10T04:15:43.454Z,0.87
2018-08-10T04:18:47.878Z,0.50
2018-08-10T04:21:52.272Z,0.60
2018-08-10T04:24:56.695Z,0.53
2018-08-10T04:28:01.130Z,0.60
2018-08-10T04:31:05.583Z,0.57
2018-08-10T04:34:10.014Z,0.40
2018-08-10T04:37:14.481Z,0.53
2018-08-10T04:40:18.950Z,0.50
2018-08-10T04:43:23.470Z,0.50
2018-08-10T04:46:27.918Z,0.67
2018-08-10T04:49:32.345Z,0.50
2018-08-10T04:52:36.837Z,0.50
2018-08-10T04:55:41.370Z,0.50
2018-08-10T04:58:45.895Z,0.83
2018-08-10T05:01:50.410Z,0.50
2018-08-10T05:04:54.857Z,0.80
2018-08-10T05:07:59.331Z,0.70
2018-08-10T05:11:03.844Z,0.60
2018-08-10T05:14:08.527Z,0.80
2018-08-10T05:17:12.953Z,0.50
2018-08-10T05:20:17.474Z,0.80
2018-08-10T05:23:21.946Z,0.80
2018-08-10T05:26:26.407Z,0.70
2018-08-10T05:29:30.875Z,0.70
2018-08-10T05:32:35.272Z,0.70
2018-08-10T05:35:39.738Z,0.70
2018-08-10T05:38:44.220Z,0.90
2018-08-10T05:41:48.745Z,0.70
2018-08-10T05:44:53.270Z,0.70
2018-08-10T05:47:57.726Z,0.70
2018-08-10T05:51:02.167Z,0.60
2018-08-10T05:54:07.254Z,0.50
2018-08-10T05:57:11.706Z,0.73
2018-08-10T06:00:16.157Z,0.67
2018-08-10T06:03:20.595Z,0.60
2018-08-10T06:06:25.169Z,0.60
2018-08-10T06:09:29.681Z,0.70
2018-08-10T06:12:34.185Z,0.40
2018-08-10T06:15:38.618Z,0.73
2018-08-10T06:18:49.750Z,0.83
2018-08-10T06:21:54.194Z,0.60
2018-08-10T06:24:58.644Z,0.80
2018-08-10T06:28:03.178Z,0.50
2018-08-10T06:31:07.711Z,0.70
2018-08-10T06:34:12.182Z,0.57
2018-08-10T06:37:16.645Z,0.65
2018-08-10T06:40:21.186Z,0.50
2018-08-10T06:43:25.713Z,0.70
2018-08-10T06:46:30.154Z,0.65
2018-08-10T06:49:34.661Z,0.47
2018-08-10T06:52:39.187Z,0.85
2018-08-10T06:55:43.784Z,0.47
2018-08-10T06:58:48.150Z,0.68
2018-08-10T07:01:52.594Z,0.78
2018-08-10T07:04:57.088Z,0.40
2018-08-10T07:08:01.614Z,0.93
2018-08-10T07:11:06.141Z,0.88
2018-08-10T07:14:10.663Z,0.60
2018-08-10T07:17:15.189Z,0.50
2018-08-10T07:20:19.669Z,0.60
2018-08-10T07:23:24.138Z,0.68
2018-08-10T07:26:28.578Z,0.82
2018-08-10T07:29:33.090Z,0.40
2018-08-10T07:32:37.570Z,0.60
2018-08-10T07:35:41.995Z,0.70
2018-08-10T07:38:46.474Z,0.53
2018-08-10T07:41:50.915Z,0.50
2018-08-10T07:44:55.336Z,0.50
2018-08-10T07:47:59.793Z,0.53
2018-08-10T07:51:04.256Z,0.50
2018-08-10T07:54:08.766Z,0.50
2018-08-10T07:57:13.207Z,0.40
2018-08-10T08:00:17.735Z,0.40
2018-08-10T08:03:22.253Z,0.50
2018-08-10T08:06:26.661Z,0.62
2018-08-10T08:09:31.249Z,0.40
2018-08-10T08:12:35.736Z,0.60
2018-08-10T08:15:40.225Z,0.50
2018-08-10T08:18:45.021Z,0.50
2018-08-10T08:22:10.366Z,0.50
2018-08-10T08:25:14.834Z,0.53
2018-08-10T08:28:22.429Z,0.30
2018-08-10T08:31:26.917Z,0.70
2018-08-10T08:34:31.451Z,0.72
2018-08-10T08:37:35.899Z,0.40
2018-08-10T08:40:40.437Z,0.47
2018-08-10T08:46:01.613Z,0.50
2018-08-10T08:49:05.902Z,0.40
2018-08-10T08:52:10.407Z,0.60
2018-08-10T08:55:30.054Z,0.47
2018-08-10T08:58:35.086Z,0.60
2018-08-10T09:01:39.515Z,0.60
2018-08-10T09:05:06.637Z,0.50
2018-08-10T09:08:11.100Z,0.40
2018-08-10T09:11:15.550Z,1.02
2018-08-10T09:15:09.331Z,0.53
2018-08-10T09:18:13.960Z,0.50
2018-08-10T09:21:18.432Z,0.50
2018-08-10T09:24:22.877Z,0.25
2018-08-10T09:27:27.337Z,0.50
2018-08-10T09:30:31.859Z,0.50
2018-08-10T09:33:36.318Z,0.40
2018-08-10T09:36:40.761Z,0.40
2018-08-10T09:39:45.245Z,0.60
2018-08-10T09:42:49.757Z,0.60
2018-08-10T09:45:54.189Z,0.50
2018-08-10T09:48:58.669Z,0.75
2018-08-10T09:52:03.153Z,0.40
2018-08-10T09:55:23.793Z,0.40
2018-08-10T09:58:28.258Z,0.57
2018-08-10T10:01:37.803Z,0.50
2018-08-10T10:04:42.327Z,0.40
2018-08-10T10:07:46.986Z,0.42
2018-08-10T10:10:51.489Z,0.40
2018-08-10T10:13:56.007Z,0.60
2018-08-10T10:17:00.518Z,0.50
2018-08-10T10:20:05.670Z,0.50
2018-08-10T10:23:10.138Z,0.62
2018-08-10T10:26:14.663Z,0.50
2018-08-10T10:29:19.084Z,0.60
2018-08-10T10:32:23.580Z,0.82
2018-08-10T10:35:28.061Z,0.50
2018-08-10T10:38:32.520Z,0.60
2018-08-10T10:41:36.975Z,0.60
2018-08-10T10:44:41.422Z,0.72
2018-08-10T10:47:47.224Z,0.60
2018-08-10T10:50:51.819Z,0.57
2018-08-10T10:53:56.209Z,0.40
2018-08-10T10:57:00.768Z,0.50
2018-08-10T11:00:07.374Z,0.60
2018-08-10T11:03:11.880Z,0.62
2018-08-10T11:06:16.355Z,0.80
2018-08-10T11:09:20.786Z,0.45
2018-08-10T11:12:25.275Z,0.50
2018-08-10T11:15:29.729Z,0.90
2018-08-10T11:18:34.173Z,0.65
2018-08-10T11:21:38.648Z,0.45
2018-08-10T11:24:43.078Z,0.70
2018-08-10T11:27:47.518Z,0.50
2018-08-10T11:30:51.997Z,0.70
2018-08-10T11:33:56.553Z,0.42
2018-08-10T11:37:01.050Z,0.78
2018-08-10T11:40:09.358Z,0.57
2018-08-10T11:43:13.809Z,0.80
2018-08-10T11:46:18.790Z,0.68
2018-08-10T11:49:23.213Z,0.60
2018-08-10T11:52:27.729Z,0.60
2018-08-10T11:55:32.122Z,0.50
2018-08-10T11:58:36.645Z,0.50
2018-08-10T12:01:41.073Z,0.57
2018-08-10T12:04:45.548Z,0.47
2018-08-10T12:07:49.992Z,0.62
2018-08-10T12:10:54.439Z,0.68
2018-08-10T12:13:58.877Z,0.70
2018-08-10T12:17:03.369Z,0.78
2018-08-10T12:20:07.879Z,0.70
2018-08-10T12:23:12.343Z,0.70
2018-08-10T12:26:16.782Z,0.95
2018-08-10T12:29:21.225Z,0.70
2018-08-10T12:32:25.713Z,0.70
2018-08-10T12:35:30.207Z,0.78
2018-08-10T12:38:34.661Z,0.60
2018-08-10T12:41:39.391Z,1.05
2018-08-10T12:44:43.838Z,0.70
2018-08-10T12:47:48.363Z,0.70
2018-08-10T12:50:52.735Z,0.80
2018-08-10T12:53:57.190Z,0.50
2018-08-10T12:57:01.961Z,0.57
2018-08-10T13:00:10.667Z,0.40
2018-08-10T13:03:15.165Z,0.60
2018-08-10T13:06:19.666Z,0.60
2018-08-10T13:09:24.118Z,0.60
2018-08-10T13:12:28.600Z,0.60
2018-08-10T13:15:33.068Z,0.65
2018-08-10T13:18:37.594Z,0.68
2018-08-10T13:21:42.072Z,0.62
2018-08-10T13:24:46.544Z,0.60
2018-08-10T13:27:50.964Z,0.80
2018-08-10T13:30:55.492Z,0.62
2018-08-10T13:34:00.018Z,0.60
2018-08-10T13:37:04.480Z,0.70
2018-08-10T13:40:08.986Z,0.70
2018-08-10T13:43:13.493Z,0.50
2018-08-10T13:46:17.950Z,0.65
2018-08-10T13:49:22.441Z,0.60
2018-08-10T13:52:26.968Z,0.60
2018-08-10T13:55:31.446Z,0.60
2018-08-10T13:58:35.944Z,0.60
2018-08-10T14:01:40.378Z,0.60
2018-08-10T14:04:44.876Z,0.68
2018-08-10T14:07:49.398Z,0.55
2018-08-10T14:10:53.887Z,0.70
2018-08-10T14:13:58.369Z,0.62
2018-08-10T14:17:02.809Z,1.00
2018-08-10T14:20:07.920Z,0.80
2018-08-10T14:23:12.346Z,0.62
2018-08-10T14:26:16.801Z,0.70
2018-08-10T14:29:21.297Z,0.60
2018-08-10T14:32:25.741Z,0.53
2018-08-10T14:35:30.226Z,0.70
2018-08-10T14:38:34.756Z,0.75
2018-08-10T14:41:39.298Z,0.55
2018-08-10T14:44:43.803Z,0.75
2018-08-10T14:47:48.261Z,0.60
2018-08-10T14:50:52.781Z,0.60
2018-08-10T14:53:57.202Z,0.82
2018-08-10T14:57:01.703Z,0.60
2018-08-10T15:00:10.942Z,0.40
2018-08-10T15:03:15.328Z,0.47
2018-08-10T15:06:19.794Z,0.50
2018-08-10T15:09:24.261Z,0.50
2018-08-10T15:12:28.920Z,0.60
2018-08-10T15:15:33.158Z,0.68
2018-08-10T15:18:37.679Z,0.60
2018-08-10T15:21:42.211Z,0.60
2018-08-10T15:24:46.636Z,0.60
2018-08-10T15:27:51.151Z,0.70
2018-08-10T15:30:55.686Z,0.50
2018-08-10T15:34:00.186Z,0.75
2018-08-10T15:37:04.737Z,0.47
2018-08-10T15:40:11.833Z,0.72
2018-08-10T15:43:16.350Z,1.00
2018-08-10T15:46:20.853Z,0.95
2018-08-10T15:49:25.268Z,0.70
2018-08-10T15:52:29.730Z,0.70
2018-08-10T15:55:34.350Z,0.60
2018-08-10T15:58:38.772Z,0.60
2018-08-10T16:01:43.242Z,0.57
2018-08-10T16:04:47.726Z,0.62
2018-08-10T16:07:52.236Z,0.70
2018-08-10T16:10:56.751Z,0.80
2018-08-10T16:14:01.201Z,0.80
2018-08-10T16:17:05.723Z,0.60
2018-08-10T16:20:13.782Z,0.60
2018-08-10T16:23:18.360Z,0.50
2018-08-10T16:26:22.880Z,1.25
2018-08-10T16:29:27.349Z,0.80
2018-08-10T16:32:31.908Z,0.75
2018-08-10T16:35:36.325Z,0.72
2018-08-10T16:38:40.784Z,0.53
2018-08-10T16:41:45.284Z,0.90
2018-08-10T16:44:49.731Z,6.17
2018-08-10T16:47:54.266Z,2.30
2018-08-10T16:50:58.682Z,1.00
2018-08-10T16:54:37.421Z,0.90
2018-08-10T16:57:42.918Z,3.55
2018-08-10T17:00:47.321Z,7.55
2018-08-10T17:03:51.759Z,7.53
2018-08-10T17:06:56.196Z,1.98
2018-08-10T17:10:00.701Z,1.10
2018-08-10T17:13:05.125Z,0.75
2018-08-10T17:16:09.522Z,0.85
2018-08-10T17:19:13.973Z,0.80
2018-08-10T17:22:18.369Z,0.80
2018-08-10T17:25:22.836Z,0.78
2018-08-10T17:28:27.294Z,0.70
2018-08-10T17:31:31.821Z,0.85
2018-08-10T17:34:36.281Z,0.85
2018-08-10T17:37:41.533Z,0.80
2018-08-10T17:40:45.981Z,0.72
2018-08-10T17:43:50.434Z,0.70
2018-08-10T17:46:54.966Z,0.60
2018-08-10T17:49:59.387Z,0.78
2018-08-10T17:53:03.920Z,0.70
2018-08-10T17:56:08.343Z,0.82
2018-08-10T17:59:12.954Z,0.65
2018-08-10T18:02:17.483Z,0.68
2018-08-10T18:05:22.038Z,0.88
2018-08-10T18:08:26.445Z,0.82
2018-08-10T18:11:30.878Z,0.82
2018-08-10T18:14:35.337Z,0.60
2018-08-10T18:17:40.573Z,0.88
2018-08-10T18:20:45.014Z,0.80
2018-08-10T18:23:49.421Z,0.80
2018-08-10T18:26:53.875Z,0.78
2018-08-10T18:29:58.327Z,0.88
2018-08-10T18:33:02.802Z,0.68
2018-08-10T18:36:07.301Z,0.65
2018-08-10T18:39:14.165Z,0.90
2018-08-10T18:42:18.584Z,0.70
2018-08-10T18:45:23.150Z,0.93
2018-08-10T18:48:27.693Z,0.90
2018-08-10T18:51:32.162Z,0.80
2018-08-10T18:54:36.682Z,0.90
2018-08-10T18:57:41.150Z,0.80
2018-08-10T19:00:45.633Z,1.05
2018-08-10T19:03:50.118Z,1.20
2018-08-10T19:06:54.699Z,1.07
2018-08-10T19:09:59.185Z,1.30
2018-08-10T19:13:03.670Z,1.02
2018-08-10T19:16:08.267Z,1.10
2018-08-10T19:19:12.701Z,1.25
2018-08-10T19:22:17.197Z,1.25
2018-08-10T19:25:21.673Z,1.00
2018-08-10T19:28:26.122Z,1.00
2018-08-10T19:31:30.609Z,1.10
2018-08-10T19:34:35.111Z,0.80
2018-08-10T19:37:40.044Z,1.00
2018-08-10T19:40:44.525Z,1.15
2018-08-10T19:43:48.960Z,1.07
2018-08-10T19:46:53.575Z,1.05
2018-08-10T19:49:57.961Z,1.20
2018-08-10T19:53:02.545Z,1.20
2018-08-10T19:56:11.979Z,1.25
2018-08-10T19:59:16.438Z,1.20
2018-08-10T20:02:20.874Z,0.98
2018-08-10T20:05:25.356Z,1.37
2018-08-10T20:08:29.912Z,1.00
2018-08-10T20:11:34.529Z,0.90
2018-08-10T20:14:39.030Z,1.00
2018-08-10T20:17:43.896Z,0.90
2018-08-10T20:20:48.410Z,1.17
2018-08-10T20:23:52.900Z,0.60
2018-08-10T20:26:57.373Z,0.90
2018-08-10T20:30:01.900Z,0.80
2018-08-10T20:33:06.441Z,1.10
2018-08-10T20:36:10.952Z,1.20
2018-08-10T20:39:15.478Z,1.00
2018-08-10T20:42:19.990Z,1.00
2018-08-10T20:45:24.533Z,1.00
2018-08-10T20:48:29.025Z,1.02
2018-08-10T20:51:33.644Z,1.05
2018-08-10T20:54:38.114Z,1.15
2018-08-10T20:57:43.042Z,1.50
2018-08-10T21:00:47.570Z,1.00
2018-08-10T21:03:52.192Z,1.27
2018-08-10T21:06:56.626Z,1.22
2018-08-10T21:10:01.194Z,0.95
2018-08-10T21:13:05.678Z,1.22
2018-08-10T21:16:10.369Z,1.40
2018-08-10T21:19:15.180Z,1.60
2018-08-10T21:22:19.638Z,1.50
2018-08-10T21:25:24.253Z,1.15
2018-08-10T21:28:28.745Z,1.35
2018-08-10T21:31:33.197Z,2.10
2018-08-10T21:34:37.625Z,1.62
2018-08-10T21:37:42.192Z,1.50
2018-08-10T21:40:46.629Z,1.40
2018-08-10T21:43:51.136Z,1.62
2018-08-10T21:46:55.558Z,1.82
2018-08-10T21:50:00.194Z,2.05
2018-08-10T21:53:04.689Z,1.90
2018-08-10T21:56:09.136Z,1.80
2018-08-10T21:59:13.665Z,2.02
2018-08-10T22:02:19.253Z,1.72
2018-08-10T22:05:24.692Z,2.33
2018-08-10T22:08:29.497Z,1.90
2018-08-10T22:11:33.990Z,1.92
2018-08-10T22:14:43.726Z,1.87
2018-08-10T22:17:53.521Z,1.70
2018-08-10T22:20:58.219Z,1.80
2018-08-10T22:24:02.632Z,2.13
2018-08-10T22:27:07.097Z,2.08
2018-08-10T22:30:11.623Z,2.13
2018-08-10T22:33:16.150Z,2.00
2018-08-10T22:36:20.649Z,2.10
2018-08-10T22:39:25.153Z,2.00
2018-08-10T22:42:29.624Z,1.90
2018-08-10T22:45:34.081Z,2.13
2018-08-10T22:48:38.577Z,1.93
2018-08-10T22:51:43.099Z,2.00
2018-08-10T22:54:47.625Z,1.90
2018-08-10T22:57:52.048Z,1.90
2018-08-10T23:00:56.574Z,2.00
2018-08-10T23:04:01.006Z,1.75
2018-08-10T23:07:05.523Z,1.82
2018-08-10T23:10:12.035Z,1.60
2018-08-10T23:13:16.520Z,1.77
2018-08-10T23:16:21.048Z,2.10
2018-08-10T23:19:25.573Z,1.67
2018-08-10T23:22:30.098Z,1.70
2018-08-10T23:25:34.624Z,2.20
2018-08-10T23:28:39.149Z,1.62
2018-08-10T23:31:43.589Z,1.57
2018-08-10T23:34:48.099Z,1.77
2018-08-10T23:37:52.551Z,1.70
2018-08-10T23:40:56.991Z,1.70
2018-08-10T23:44:01.414Z,1.70
2018-08-10T23:47:05.924Z,1.70
2018-08-10T23:50:19.205Z,1.40
2018-08-10T23:53:23.667Z,1.70
2018-08-10T23:56:28.176Z,1.43
2018-08-10T23:59:32.599Z,1.60
